createdAt,value
2022-10-20T00:02:34.097Z,14.80
2022-10-20T00:05:21.046Z,13.23
2022-10-20T00:08:06.645Z,9.03
2022-10-20T00:10:58.683Z,12.37
2022-10-20T00:13:45.689Z,10.27
2022-10-20T00:16:32.515Z,9.80
2022-10-20T00:19:18.145Z,11.77
2022-10-20T00:22:03.975Z,13.90
2022-10-20T00:24:52.144Z,10.10
2022-10-20T00:27:37.907Z,14.53
2022-10-20T00:30:25.681Z,10.87
2022-10-20T00:33:11.585Z,9.80
2022-10-20T00:36:00.215Z,9.00
2022-10-20T00:38:45.788Z,10.90
2022-10-20T00:41:33.257Z,8.67
2022-10-20T00:44:38.078Z,10.23
2022-10-20T00:47:32.131Z,10.30
2022-10-20T00:50:20.102Z,9.70
2022-10-20T00:53:06.450Z,10.00
2022-10-20T00:55:54.921Z,9.70
2022-10-20T00:58:41.262Z,11.53
2022-10-20T01:01:27.441Z,8.00
2022-10-20T01:04:13.695Z,8.87
2022-10-20T01:07:00.144Z,9.00
2022-10-20T01:09:47.654Z,10.70
2022-10-20T01:12:33.682Z,8.63
2022-10-20T01:15:30.781Z,10.40
2022-10-20T01:18:20.980Z,11.00
2022-10-20T01:21:09.886Z,10.53
2022-10-20T01:24:15.414Z,10.07
2022-10-20T01:27:23.552Z,13.63
2022-10-20T01:30:12.618Z,9.00
2022-10-20T01:33:09.947Z,10.53
2022-10-20T01:36:00.235Z,9.30
2022-10-20T01:39:08.448Z,8.33
2022-10-20T01:41:57.016Z,9.63
2022-10-20T01:44:43.888Z,8.70
2022-10-20T01:47:30.225Z,10.67
2022-10-20T01:50:16.363Z,8.67
2022-10-20T01:53:02.628Z,10.33
2022-10-20T01:55:51.011Z,9.87
2022-10-20T01:58:36.546Z,8.77
2022-10-20T02:01:41.384Z,12.77
2022-10-20T02:04:31.125Z,8.43
2022-10-20T02:07:23.762Z,9.33
2022-10-20T02:10:12.937Z,8.90
2022-10-20T02:13:01.341Z,13.20
2022-10-20T02:15:50.165Z,10.87
2022-10-20T02:18:39.302Z,12.30
2022-10-20T02:21:25.350Z,9.03
2022-10-20T02:24:11.051Z,9.87
2022-10-20T02:26:58.662Z,9.30
2022-10-20T02:29:51.090Z,16.17
2022-10-20T02:32:38.604Z,9.30
2022-10-20T02:35:32.768Z,9.03
2022-10-20T02:38:18.995Z,10.43
2022-10-20T02:41:05.476Z,10.20
2022-10-20T02:43:52.068Z,11.80
2022-10-20T02:46:37.900Z,9.17
2022-10-20T02:49:25.197Z,11.63
2022-10-20T02:52:11.670Z,9.57
2022-10-20T02:54:57.667Z,10.10
2022-10-20T02:57:44.034Z,9.90
2022-10-20T03:00:31.082Z,11.70
2022-10-20T03:03:18.122Z,9.63
2022-10-20T03:06:08.260Z,8.90
2022-10-20T03:08:54.284Z,9.93
2022-10-20T03:11:40.050Z,8.90
2022-10-20T03:14:26.317Z,10.07
2022-10-20T03:17:12.663Z,9.60
2022-10-20T03:19:58.548Z,9.40
2022-10-20T03:22:44.445Z,13.27
2022-10-20T03:25:32.194Z,9.13
2022-10-20T03:28:18.428Z,9.67
2022-10-20T03:31:05.632Z,9.77
2022-10-20T03:33:51.721Z,10.60
2022-10-20T03:36:37.623Z,10.33
2022-10-20T03:39:23.441Z,9.07
2022-10-20T03:42:09.385Z,10.57
2022-10-20T03:44:55.271Z,9.10
2022-10-20T03:47:41.305Z,10.53
2022-10-20T03:50:27.303Z,10.53
2022-10-20T03:53:14.381Z,9.97
2022-10-20T03:56:00.436Z,10.83
2022-10-20T03:58:46.676Z,12.17
2022-10-20T04:01:33.506Z,13.87
2022-10-20T04:04:19.465Z,12.07
2022-10-20T04:07:05.556Z,12.60
2022-10-20T04:09:51.653Z,15.70
2022-10-20T04:12:38.067Z,12.20
2022-10-20T04:15:24.103Z,14.90
2022-10-20T04:18:10.263Z,9.77
2022-10-20T04:20:56.427Z,10.47
2022-10-20T04:23:42.156Z,13.90
2022-10-20T04:26:28.377Z,12.43
2022-10-20T04:29:14.226Z,10.20
2022-10-20T04:32:00.903Z,9.57
2022-10-20T04:34:46.882Z,13.67
2022-10-20T04:37:33.097Z,11.83
2022-10-20T04:40:20.015Z,10.07
2022-10-20T04:43:06.196Z,14.70
2022-10-20T04:45:59.858Z,10.03
2022-10-20T04:48:50.661Z,10.90
2022-10-20T04:51:36.913Z,10.27
2022-10-20T04:54:22.639Z,11.70
2022-10-20T04:57:10.847Z,10.03
2022-10-20T04:59:58.222Z,14.20
2022-10-20T05:02:44.159Z,11.37
2022-10-20T05:05:30.315Z,14.50
2022-10-20T05:08:18.166Z,13.83
2022-10-20T05:11:04.517Z,11.37
2022-10-20T05:13:50.236Z,10.07
2022-10-20T05:16:36.077Z,13.97
2022-10-20T05:19:22.093Z,11.50
2022-10-20T05:22:07.950Z,13.17
2022-10-20T05:24:53.773Z,11.03
2022-10-20T05:27:39.578Z,13.87
2022-10-20T05:30:25.115Z,11.50
2022-10-20T05:33:11.630Z,15.93
2022-10-20T05:35:57.918Z,12.17
2022-10-20T05:38:43.591Z,11.50
2022-10-20T05:41:33.395Z,11.87
2022-10-20T05:44:23.517Z,18.07
2022-10-20T05:47:09.184Z,18.07
2022-10-20T05:49:55.132Z,15.40
2022-10-20T05:52:40.980Z,13.10
2022-10-20T05:55:26.808Z,12.57
2022-10-20T05:58:12.616Z,16.90
2022-10-20T06:01:07.684Z,16.80
2022-10-20T06:03:57.810Z,12.47
2022-10-20T06:06:44.117Z,14.37
2022-10-20T06:09:29.714Z,15.43
2022-10-20T06:12:15.694Z,14.13
2022-10-20T06:15:01.379Z,17.63
2022-10-20T06:17:47.457Z,17.53
2022-10-20T06:20:33.036Z,12.73
2022-10-20T06:23:18.553Z,14.73
2022-10-20T06:26:05.499Z,13.57
2022-10-20T06:28:52.487Z,13.60
2022-10-20T06:31:40.344Z,14.10
2022-10-20T06:34:26.399Z,14.80
2022-10-20T06:37:14.005Z,15.90
2022-10-20T06:40:00.002Z,18.47
2022-10-20T06:42:47.099Z,15.73
2022-10-20T06:45:33.472Z,16.23
2022-10-20T06:48:20.335Z,14.87
2022-10-20T06:51:07.408Z,19.50
2022-10-20T06:53:53.058Z,14.20
2022-10-20T06:56:39.556Z,16.33
2022-10-20T06:59:25.201Z,21.53
2022-10-20T07:02:12.210Z,17.77
2022-10-20T07:04:57.949Z,22.60
2022-10-20T07:07:43.866Z,16.87
2022-10-20T07:10:29.721Z,15.53
2022-10-20T07:13:15.470Z,15.00
2022-10-20T07:16:01.356Z,18.00
2022-10-20T07:18:47.459Z,16.97
2022-10-20T07:21:36.814Z,18.50
2022-10-20T07:24:24.363Z,17.87
2022-10-20T07:27:10.291Z,17.80
2022-10-20T07:29:56.051Z,15.30
2022-10-20T07:32:41.541Z,17.67
2022-10-20T07:35:30.410Z,18.20
2022-10-20T07:38:18.585Z,24.30
2022-10-20T07:41:04.661Z,18.37
2022-10-20T07:43:50.514Z,18.63
2022-10-20T07:46:36.392Z,17.70
2022-10-20T07:49:43.429Z,17.03
2022-10-20T07:52:30.218Z,18.00
2022-10-20T07:55:33.518Z,21.07
2022-10-20T07:58:21.778Z,17.50
2022-10-20T08:01:08.087Z,22.00
2022-10-20T08:03:54.114Z,23.50
2022-10-20T08:06:39.744Z,17.60
2022-10-20T08:09:25.334Z,22.67
2022-10-20T08:12:11.704Z,20.93
2022-10-20T08:14:57.597Z,29.60
2022-10-20T08:17:43.547Z,23.93
2022-10-20T08:20:32.040Z,18.80
2022-10-20T08:23:17.992Z,21.33
2022-10-20T08:26:06.816Z,19.53
2022-10-20T08:28:56.196Z,24.43
2022-10-20T08:31:42.010Z,21.47
2022-10-20T08:34:28.020Z,23.63
2022-10-20T08:37:13.942Z,25.43
2022-10-20T08:39:59.363Z,24.40
2022-10-20T08:42:45.691Z,18.50
2022-10-20T08:45:35.953Z,21.93
2022-10-20T08:48:28.635Z,25.57
2022-10-20T08:51:22.388Z,26.60
2022-10-20T08:54:13.414Z,20.97
2022-10-20T08:56:59.604Z,21.43
2022-10-20T08:59:45.076Z,22.40
2022-10-20T09:02:33.655Z,22.50
2022-10-20T09:05:25.671Z,23.00
2022-10-20T09:08:11.303Z,23.67
2022-10-20T09:10:57.249Z,24.00
2022-10-20T09:13:43.272Z,21.87
2022-10-20T09:16:42.086Z,24.30
2022-10-20T09:19:34.603Z,23.97
2022-10-20T09:22:22.192Z,25.10
2022-10-20T09:25:13.605Z,24.47
2022-10-20T09:27:59.195Z,24.70
2022-10-20T09:30:45.686Z,21.90
2022-10-20T09:33:33.537Z,25.57
2022-10-20T09:36:20.176Z,23.60
2022-10-20T09:39:05.879Z,24.63
2022-10-20T09:41:59.591Z,21.10
2022-10-20T09:44:54.709Z,21.87
2022-10-20T09:47:43.206Z,20.53
2022-10-20T09:50:29.100Z,24.93
2022-10-20T09:53:19.427Z,24.53
2022-10-20T09:56:05.097Z,31.60
2022-10-20T09:58:50.705Z,23.47
2022-10-20T10:01:52.719Z,24.10
2022-10-20T10:04:39.497Z,22.30
2022-10-20T10:07:28.384Z,18.23
2022-10-20T10:10:20.327Z,19.87
2022-10-20T10:16:01.248Z,19.30
2022-10-20T10:19:03.297Z,23.43
2022-10-20T10:21:59.935Z,19.20
2022-10-20T10:24:47.044Z,25.37
2022-10-20T10:27:35.051Z,20.43
2022-10-20T10:30:31.744Z,25.97
2022-10-20T10:33:28.114Z,28.33
2022-10-20T10:36:18.210Z,23.97
2022-10-20T10:39:05.460Z,31.83
2022-10-20T10:41:54.426Z,24.73
2022-10-20T10:44:55.050Z,24.03
2022-10-20T10:47:46.804Z,23.33
2022-10-20T10:50:49.335Z,25.20
2022-10-20T10:53:53.929Z,19.57
2022-10-20T10:56:55.148Z,29.07
2022-10-20T10:59:44.840Z,23.67
2022-10-20T11:02:33.876Z,27.27
2022-10-20T11:05:34.849Z,27.90
2022-10-20T11:08:26.088Z,26.57
2022-10-20T11:11:20.983Z,21.97
2022-10-20T11:17:31.168Z,23.10
2022-10-20T11:20:25.458Z,23.77
2022-10-20T11:23:20.728Z,21.73
2022-10-20T11:26:17.354Z,20.13
2022-10-20T11:29:04.937Z,22.80
2022-10-20T11:31:56.037Z,25.37
2022-10-20T11:34:55.150Z,22.70
2022-10-20T11:37:59.696Z,22.67
2022-10-20T11:40:48.211Z,30.50
2022-10-20T11:43:37.656Z,24.97
2022-10-20T11:46:28.029Z,21.87
2022-10-20T11:49:15.020Z,24.30
2022-10-20T11:52:19.279Z,20.40
2022-10-20T11:55:25.550Z,20.43
2022-10-20T11:58:30.911Z,27.80
2022-10-20T12:01:31.952Z,21.73
2022-10-20T12:04:40.400Z,24.23
2022-10-20T12:07:49.779Z,21.73
2022-10-20T12:10:54.270Z,19.80
2022-10-20T12:13:46.091Z,21.30
2022-10-20T12:16:50.381Z,20.30
2022-10-20T12:19:36.209Z,20.13
2022-10-20T12:22:38.619Z,34.40
2022-10-20T12:25:27.903Z,24.50
2022-10-20T12:28:23.117Z,26.00
2022-10-20T12:31:09.144Z,22.77
2022-10-20T12:33:56.427Z,20.70
2022-10-20T12:36:42.127Z,24.77
2022-10-20T12:39:29.957Z,20.13
2022-10-20T12:42:29.357Z,19.20
2022-10-20T12:45:21.373Z,17.77
2022-10-20T12:48:08.101Z,23.90
2022-10-20T12:50:54.725Z,20.40
2022-10-20T12:53:41.002Z,24.30
2022-10-20T12:56:28.966Z,27.33
2022-10-20T12:59:23.506Z,21.33
2022-10-20T13:02:09.404Z,24.77
2022-10-20T13:05:03.081Z,16.87
2022-10-20T13:07:49.573Z,21.83
2022-10-20T13:10:36.381Z,23.40
2022-10-20T13:13:22.448Z,18.50
2022-10-20T13:16:14.220Z,24.00
2022-10-20T13:19:00.509Z,22.37
2022-10-20T13:21:49.619Z,18.33
2022-10-20T13:24:40.544Z,22.40
2022-10-20T13:27:30.295Z,24.70
2022-10-20T13:30:20.580Z,26.43
2022-10-20T13:33:34.507Z,23.63
2022-10-20T13:36:43.218Z,22.00
2022-10-20T13:39:29.126Z,22.50
2022-10-20T13:42:14.906Z,23.93
2022-10-20T13:45:07.154Z,23.67
2022-10-20T13:48:08.414Z,21.50
2022-10-20T13:50:57.363Z,24.30
2022-10-20T13:53:45.750Z,25.90
2022-10-20T13:56:40.893Z,23.10
2022-10-20T13:59:29.060Z,21.63
2022-10-20T14:02:31.843Z,23.27
2022-10-20T14:05:21.455Z,26.53
2022-10-20T14:08:11.468Z,20.37
2022-10-20T14:11:04.401Z,24.50
2022-10-20T14:13:50.201Z,22.50
2022-10-20T14:16:39.888Z,26.67
2022-10-20T14:19:28.091Z,20.80
2022-10-20T14:22:16.848Z,23.77
2022-10-20T14:25:05.349Z,26.10
2022-10-20T14:27:53.274Z,30.50
2022-10-20T14:30:41.200Z,24.70
2022-10-20T14:33:27.654Z,26.50
2022-10-20T14:36:18.919Z,24.90
2022-10-20T14:39:04.945Z,24.90
2022-10-20T14:41:50.529Z,22.80
2022-10-20T14:44:37.219Z,23.57
2022-10-20T14:47:23.643Z,24.97
2022-10-20T14:50:19.897Z,25.07
2022-10-20T14:53:19.548Z,22.37
2022-10-20T14:56:23.712Z,23.83
2022-10-20T14:59:14.092Z,30.07
2022-10-20T15:02:11.631Z,23.97
2022-10-20T15:04:57.299Z,29.80
2022-10-20T15:07:43.584Z,27.77
2022-10-20T15:10:31.503Z,25.30
2022-10-20T15:13:31.893Z,25.87
2022-10-20T15:16:34.576Z,29.03
2022-10-20T15:19:33.002Z,27.40
2022-10-20T15:22:18.757Z,30.80
2022-10-20T15:25:04.751Z,24.70
2022-10-20T15:27:50.882Z,28.70
2022-10-20T15:30:36.474Z,26.47
2022-10-20T15:33:22.381Z,29.27
2022-10-20T15:36:20.758Z,27.47
2022-10-20T15:39:07.937Z,30.60
2022-10-20T15:41:55.107Z,29.00
2022-10-20T15:44:40.573Z,26.87
2022-10-20T15:47:26.568Z,29.40
2022-10-20T15:50:12.600Z,28.27
2022-10-20T15:53:01.371Z,24.67
2022-10-20T15:55:47.284Z,28.23
2022-10-20T15:58:37.371Z,30.00
2022-10-20T16:01:25.794Z,24.80
2022-10-20T16:04:19.210Z,29.60
2022-10-20T16:07:04.908Z,33.00
2022-10-20T16:09:50.755Z,27.83
2022-10-20T16:12:37.928Z,26.23
2022-10-20T16:15:28.891Z,28.10
2022-10-20T16:18:17.126Z,29.10
2022-10-20T16:21:03.811Z,31.30
2022-10-20T16:23:51.439Z,34.90
2022-10-20T16:26:37.258Z,31.03
2022-10-20T16:29:23.436Z,30.40
2022-10-20T16:32:09.108Z,34.23
2022-10-20T16:34:56.033Z,32.13
2022-10-20T16:37:43.972Z,32.30
2022-10-20T16:40:29.847Z,36.17
2022-10-20T16:43:15.608Z,27.47
2022-10-20T16:46:04.332Z,31.50
2022-10-20T16:48:50.224Z,34.97
2022-10-20T16:51:36.078Z,33.23
2022-10-20T16:54:21.939Z,42.03
2022-10-20T16:57:10.848Z,32.60
2022-10-20T16:59:56.733Z,32.93
2022-10-20T17:02:44.719Z,34.57
2022-10-20T17:05:30.684Z,29.33
2022-10-20T17:08:17.585Z,44.87
2022-10-20T17:11:11.311Z,33.53
2022-10-20T17:13:57.177Z,31.90
2022-10-20T17:16:42.898Z,31.33
2022-10-20T17:19:28.812Z,28.37
2022-10-20T17:22:15.835Z,28.93
2022-10-20T17:25:01.699Z,27.43
2022-10-20T17:27:47.522Z,28.80
2022-10-20T17:30:33.153Z,31.00
2022-10-20T17:33:19.226Z,30.77
2022-10-20T17:36:05.501Z,28.43
2022-10-20T17:38:53.292Z,25.83
2022-10-20T17:41:39.648Z,28.17
2022-10-20T17:44:26.384Z,32.67
2022-10-20T17:47:12.445Z,30.17
2022-10-20T17:49:58.220Z,30.50
2022-10-20T17:52:44.123Z,34.20
2022-10-20T17:55:30.285Z,27.70
2022-10-20T17:58:16.130Z,32.70
2022-10-20T18:01:08.794Z,31.23
2022-10-20T18:03:58.276Z,29.13
2022-10-20T18:06:46.850Z,25.60
2022-10-20T18:09:32.725Z,30.90
2022-10-20T18:12:18.483Z,31.57
2022-10-20T18:15:04.745Z,63.97
2022-10-20T18:17:50.350Z,31.30
2022-10-20T18:20:36.114Z,31.20
2022-10-20T18:23:22.001Z,34.10
2022-10-20T18:26:08.826Z,32.10
2022-10-20T18:28:54.901Z,35.67
2022-10-20T18:31:45.211Z,35.20
2022-10-20T18:34:31.030Z,37.97
2022-10-20T18:37:19.168Z,33.90
2022-10-20T18:40:05.936Z,38.17
2022-10-20T18:42:51.716Z,38.17
2022-10-20T18:45:37.379Z,37.97
2022-10-20T18:48:23.016Z,33.73
2022-10-20T18:51:09.517Z,32.73
2022-10-20T18:53:56.757Z,38.60
2022-10-20T18:56:42.972Z,41.20
2022-10-20T18:59:28.550Z,35.30
2022-10-20T19:02:14.237Z,38.10
2022-10-20T19:05:00.015Z,41.13
2022-10-20T19:07:46.337Z,31.63
2022-10-20T19:10:32.080Z,38.70
2022-10-20T19:13:17.598Z,40.77
2022-10-20T19:16:07.316Z,33.30
2022-10-20T19:18:54.008Z,40.67
2022-10-20T19:21:39.854Z,33.90
2022-10-20T19:24:25.736Z,31.23
2022-10-20T19:27:26.221Z,33.60
2022-10-20T19:30:12.544Z,30.90
2022-10-20T19:32:58.918Z,41.37
2022-10-20T19:35:44.440Z,33.13
2022-10-20T19:38:30.268Z,30.13
2022-10-20T19:41:16.185Z,33.43
2022-10-20T19:44:02.198Z,34.87
2022-10-20T19:46:48.759Z,32.50
2022-10-20T19:49:34.641Z,29.87
2022-10-20T19:52:21.226Z,32.33
2022-10-20T19:55:07.312Z,34.43
2022-10-20T19:57:53.487Z,33.30
2022-10-20T20:00:42.715Z,32.83
2022-10-20T20:03:30.234Z,32.50
2022-10-20T20:06:18.287Z,35.80
2022-10-20T20:09:06.087Z,33.17
2022-10-20T20:11:51.939Z,30.53
2022-10-20T20:14:38.894Z,33.23
2022-10-20T20:17:24.712Z,28.67
2022-10-20T20:20:10.486Z,28.43
2022-10-20T20:22:56.113Z,32.50
2022-10-20T20:25:43.721Z,44.80
2022-10-20T20:28:29.809Z,29.57
2022-10-20T20:31:15.657Z,27.13
2022-10-20T20:34:04.280Z,29.00
2022-10-20T20:36:50.945Z,27.40
2022-10-20T20:39:36.944Z,28.30
2022-10-20T20:42:22.464Z,30.50
2022-10-20T20:45:08.398Z,28.00
2022-10-20T20:47:55.955Z,30.23
2022-10-20T20:50:41.542Z,29.30
2022-10-20T20:53:27.363Z,27.00
2022-10-20T20:56:15.124Z,36.90
2022-10-20T20:59:00.678Z,31.73
2022-10-20T21:01:47.015Z,30.03
2022-10-20T21:04:32.704Z,27.83
2022-10-20T21:07:18.558Z,29.43
2022-10-20T21:10:04.958Z,28.83
2022-10-20T21:12:50.794Z,26.80
2022-10-20T21:15:36.686Z,29.77
2022-10-20T21:18:22.487Z,27.10
2022-10-20T21:21:12.905Z,26.33
2022-10-20T21:23:59.595Z,25.03
2022-10-20T21:26:45.555Z,31.47
2022-10-20T21:29:31.327Z,27.00
2022-10-20T21:32:18.329Z,24.83
2022-10-20T21:35:04.207Z,26.87
2022-10-20T21:37:49.972Z,28.00
2022-10-20T21:40:36.806Z,26.20
2022-10-20T21:43:22.573Z,25.50
2022-10-20T21:46:18.891Z,27.60
2022-10-20T21:49:05.797Z,27.70
2022-10-20T21:51:53.006Z,28.80
2022-10-20T21:54:38.906Z,26.77
2022-10-20T21:57:24.583Z,26.03
2022-10-20T22:00:10.617Z,22.87
2022-10-20T22:02:56.421Z,24.97
2022-10-20T22:05:42.281Z,25.53
2022-10-20T22:08:28.337Z,25.00
2022-10-20T22:11:15.835Z,25.20
2022-10-20T22:14:01.802Z,31.07
2022-10-20T22:16:47.946Z,22.13
2022-10-20T22:19:34.466Z,25.70
2022-10-20T22:22:20.151Z,27.10
2022-10-20T22:25:06.436Z,25.80
2022-10-20T22:27:52.510Z,28.43
2022-10-20T22:30:38.391Z,24.03
2022-10-20T22:33:24.712Z,26.10
2022-10-20T22:36:11.057Z,26.23
2022-10-20T22:38:56.919Z,32.23
2022-10-20T22:41:42.924Z,24.80
2022-10-20T22:44:28.702Z,31.27
2022-10-20T22:47:14.785Z,27.90
2022-10-20T22:50:00.689Z,29.53
2022-10-20T22:52:46.751Z,30.77
2022-10-20T22:55:32.800Z,24.47
2022-10-20T22:58:18.664Z,27.03
2022-10-20T23:01:08.623Z,26.43
2022-10-20T23:03:55.341Z,29.13
2022-10-20T23:06:41.617Z,29.37
2022-10-20T23:09:27.559Z,28.00
2022-10-20T23:12:13.659Z,28.13
2022-10-20T23:14:59.860Z,28.33
2022-10-20T23:17:46.534Z,30.80
2022-10-20T23:20:32.475Z,23.67
2022-10-20T23:23:18.451Z,27.33
2022-10-20T23:26:05.281Z,29.63
2022-10-20T23:28:51.662Z,32.03
2022-10-20T23:31:37.848Z,31.53
2022-10-20T23:34:23.785Z,28.87
2022-10-20T23:37:09.802Z,31.87
2022-10-20T23:39:55.713Z,34.30
2022-10-20T23:42:41.669Z,32.60
2022-10-20T23:45:27.555Z,27.63
2022-10-20T23:48:14.836Z,33.80
2022-10-20T23:51:01.232Z,34.70
2022-10-20T23:53:47.059Z,32.40
2022-10-20T23:56:32.781Z,28.43
2022-10-20T23:59:18.770Z,28.93
